Altaville, California
Current Conditions -  °F | °C
As of 4:15 PM on Sunday 23 Nov 2014 (Local Time) from KO22 Reporting Station
Broken Clouds Broken Clouds  
Wind Chill: 48°   Ceiling: 12000
Heat Index: 48°   Visibility: 10mi
Dew Point: 48°   Wind: 0mph
Humidity: 100%   Direction: NA
Pressure: 30.27"   Gusts: NA
Location:  38.09°N, 120.58°W
Report Text: KO22 240015Z AUTO 00000KT 10SM BKN120 09/09 A3027 RMK AO1
Loading
Personal Weather Stations






























Interactive Weather Map New forecast layout! Learn more

10-Day Weather Forecast

Advertisements
Track Severe Weather on mobile